Time,TemperatureF,DewpointF,PressureIn,WindDirection,WindDirectionDegrees,WindSpeedMPH,WindSpeedGustMPH,Humidity,HourlyPrecipIn,Conditions,Clouds,dailyrainin,SoftwareType,DateUTC
2013-08-29 00:00:00,66.1,65.2,29.92,NNE,19,0.0,0.0,97,0.00,CLR,,0.00,WeatherDisplay:10.37,2013-08-29 05:00:00,
2013-08-29 00:05:00,66.3,65.7,29.91,NNE,19,0.0,0.0,98,0.00,CLR,,0.00,WeatherDisplay:10.37,2013-08-29 05:05:00,
2013-08-29 00:10:00,66.3,65.7,29.91,NNE,19,0.0,0.0,98,0.00,CLR,,0.00,WeatherDisplay:10.37,2013-08-29 05:10:00,
2013-08-29 00:15:00,66.1,65.5,29.91,NNE,19,0.0,0.0,98,0.00,CLR,,0.00,WeatherDisplay:10.37,2013-08-29 05:15:00,
2013-08-29 00:20:00,66.0,65.4,29.92,NNE,19,0.0,0.0,98,0.00,CLR,,0.00,WeatherDisplay:10.37,2013-08-29 05:20:00,
2013-08-29 00:25:00,66.0,65.5,29.92,NNE,19,0.0,0.0,98,0.00,CLR,,0.00,WeatherDisplay:10.37,2013-08-29 05:25:00,
2013-08-29 00:30:00,66.3,66.0,29.92,NNE,19,0.0,1.0,99,0.00,CLR,,0.00,WeatherDisplay:10.37,2013-08-29 05:30:00,
2013-08-29 00:35:00,66.3,66.0,29.92,NNE,19,0.0,1.0,99,0.00,CLR,,0.00,WeatherDisplay:10.37,2013-08-29 05:35:00,
2013-08-29 00:40:00,66.3,66.0,29.92,NNE,19,0.0,0.0,99,0.00,CLR,,0.00,WeatherDisplay:10.37,2013-08-29 05:40:00,
2013-08-29 00:45:00,66.3,66.0,29.92,NNE,19,0.0,0.0,99,0.00,CLR,,0.00,WeatherDisplay:10.37,2013-08-29 05:45:00,
2013-08-29 00:50:00,66.1,65.8,29.92,NNE,19,0.0,0.0,99,0.00,CLR,,0.00,WeatherDisplay:10.37,2013-08-29 05:50:00,
2013-08-29 00:55:00,66.0,65.7,29.92,NNE,19,0.0,0.0,99,0.00,CLR,,0.00,WeatherDisplay:10.37,2013-08-29 05:55:00,
2013-08-29 01:00:00,65.8,65.5,29.92,NNE,19,0.0,0.0,99,0.00,CLR,,0.00,WeatherDisplay:10.37,2013-08-29 06:00:00,
2013-08-29 01:05:00,66.0,65.7,29.92,NNE,19,0.0,0.0,99,0.00,CLR,,0.00,WeatherDisplay:10.37,2013-08-29 06:05:00,
2013-08-29 01:10:00,65.8,65.5,29.92,NNE,19,0.0,0.0,99,0.00,CLR,,0.00,WeatherDisplay:10.37,2013-08-29 06:10:00,
2013-08-29 01:15:00,65.8,65.5,29.92,NNE,19,0.0,0.0,99,0.00,CLR,,0.00,WeatherDisplay:10.37,2013-08-29 06:15:00,
2013-08-29 01:20:00,65.8,65.5,29.92,NNE,19,0.0,0.0,99,0.00,CLR,,0.00,WeatherDisplay:10.37,2013-08-29 06:20:00,
2013-08-29 01:25:00,65.8,65.5,29.92,NNE,19,0.0,0.0,99,0.00,CLR,,0.00,WeatherDisplay:10.37,2013-08-29 06:25:00,
2013-08-29 01:30:00,65.6,65.3,29.92,NNE,19,0.0,0.0,99,0.00,CLR,,0.00,WeatherDisplay:10.37,2013-08-29 06:30:00,
2013-08-29 01:35:00,65.6,65.3,29.92,NNE,19,0.0,0.0,99,0.00,CLR,,0.00,WeatherDisplay:10.37,2013-08-29 06:35:00,
2013-08-29 01:40:00,65.8,65.5,29.92,NNE,19,0.0,0.0,99,0.00,CLR,,0.00,WeatherDisplay:10.37,2013-08-29 06:40:00,
2013-08-29 01:45:00,66.0,66.0,29.92,NNE,19,0.0,0.0,100,0.00,CLR,,0.00,WeatherDisplay:10.37,2013-08-29 06:45:00,
2013-08-29 01:50:00,66.0,66.0,29.92,NNE,19,0.0,0.0,100,0.00,CLR,,0.00,WeatherDisplay:10.37,2013-08-29 06:50:00,
2013-08-29 01:55:00,66.0,65.7,29.92,NNE,19,0.0,0.0,99,0.00,CLR,,0.00,WeatherDisplay:10.37,2013-08-29 06:55:00,
2013-08-29 02:00:00,65.9,65.6,29.92,NNE,19,0.0,0.0,99,0.00,CLR,,0.00,WeatherDisplay:10.37,2013-08-29 07:00:00,
2013-08-29 02:05:00,65.6,65.3,29.92,NNE,19,0.0,0.0,99,0.00,CLR,,0.00,WeatherDisplay:10.37,2013-08-29 07:05:00,
2013-08-29 02:10:00,65.4,65.1,29.92,NNE,19,0.0,1.0,99,0.00,CLR,,0.00,WeatherDisplay:10.37,2013-08-29 07:10:00,
2013-08-29 02:15:00,65.2,64.9,29.92,NNE,19,0.0,0.0,99,0.00,CLR,,0.00,WeatherDisplay:10.37,2013-08-29 07:15:00,
2013-08-29 02:20:00,65.2,64.9,29.92,NNE,19,0.0,0.0,99,0.00,CLR,,0.00,WeatherDisplay:10.37,2013-08-29 07:20:00,
2013-08-29 02:25:00,65.2,64.9,29.92,NNE,19,0.0,0.0,99,0.00,CLR,,0.00,WeatherDisplay:10.37,2013-08-29 07:25:00,
2013-08-29 02:30:00,65.2,65.2,29.92,NNE,19,0.0,0.0,100,0.00,CLR,,0.00,WeatherDisplay:10.37,2013-08-29 07:30:00,
2013-08-29 02:35:00,65.3,65.3,29.92,NNE,19,0.0,0.0,100,0.00,CLR,,0.00,WeatherDisplay:10.37,2013-08-29 07:35:00,
2013-08-29 02:40:00,65.3,65.3,29.92,NNE,19,0.0,0.0,100,0.00,CLR,,0.00,WeatherDisplay:10.37,2013-08-29 07:40:00,
2013-08-29 02:45:00,65.6,65.6,29.92,NNE,19,0.0,0.0,100,0.00,CLR,,0.00,WeatherDisplay:10.37,2013-08-29 07:45:00,
2013-08-29 02:50:00,65.6,65.6,29.93,NNE,19,0.0,0.0,100,0.00,CLR,,0.00,WeatherDisplay:10.37,2013-08-29 07:50:00,
2013-08-29 02:55:00,65.6,65.6,29.93,NNE,19,0.0,0.0,100,0.00,CLR,,0.00,WeatherDisplay:10.37,2013-08-29 07:55:00,
2013-08-29 03:00:00,65.5,65.5,29.93,NNE,19,0.0,0.0,100,0.00,CLR,,0.00,WeatherDisplay:10.37,2013-08-29 08:00:00,
2013-08-29 03:05:00,65.5,65.5,29.93,NNE,19,0.0,0.0,100,0.00,CLR,,0.00,WeatherDisplay:10.37,2013-08-29 08:05:00,
2013-08-29 03:10:00,65.3,65.3,29.93,NNE,19,0.0,0.0,100,0.00,CLR,,0.00,WeatherDisplay:10.37,2013-08-29 08:10:00,
2013-08-29 03:15:00,65.5,65.5,29.93,NNE,19,0.0,0.0,100,0.00,CLR,,0.00,WeatherDisplay:10.37,2013-08-29 08:15:00,
2013-08-29 03:20:00,65.6,65.6,29.93,NNE,19,0.0,0.0,100,0.00,CLR,,0.00,WeatherDisplay:10.37,2013-08-29 08:20:00,
2013-08-29 03:25:00,65.5,65.5,29.93,NNE,19,0.0,0.0,100,0.00,CLR,,0.00,WeatherDisplay:10.37,2013-08-29 08:25:00,
2013-08-29 03:30:00,65.4,65.4,29.93,NNE,19,0.0,0.0,100,0.00,CLR,,0.00,WeatherDisplay:10.37,2013-08-29 08:30:00,
2013-08-29 03:35:00,65.2,65.2,29.93,NNE,19,0.0,0.0,100,0.00,CLR,,0.00,WeatherDisplay:10.37,2013-08-29 08:35:00,
2013-08-29 03:40:00,64.7,64.4,29.93,NNE,19,0.0,0.0,99,0.00,CLR,,0.00,WeatherDisplay:10.37,2013-08-29 08:40:00,
2013-08-29 03:45:00,64.3,64.3,29.93,NNE,19,0.0,0.0,100,0.00,CLR,,0.00,WeatherDisplay:10.37,2013-08-29 08:45:00,
2013-08-29 03:50:00,64.1,64.1,29.92,NNE,19,0.0,0.0,100,0.00,CLR,,0.00,WeatherDisplay:10.37,2013-08-29 08:50:00,
2013-08-29 03:55:00,63.7,63.4,29.92,NNE,19,0.0,0.0,99,0.00,CLR,,0.00,WeatherDisplay:10.37,2013-08-29 08:55:00,
2013-08-29 04:00:00,63.4,63.1,29.92,NNE,19,0.0,0.0,99,0.00,CLR,,0.00,WeatherDisplay:10.37,2013-08-29 09:00:00,
2013-08-29 04:05:00,63.4,63.4,29.93,NNE,19,0.0,0.0,100,0.00,CLR,,0.00,WeatherDisplay:10.37,2013-08-29 09:05:00,
2013-08-29 04:10:00,63.4,63.4,29.93,NNE,19,0.0,0.0,100,0.00,CLR,,0.00,WeatherDisplay:10.37,2013-08-29 09:10:00,
2013-08-29 04:15:00,63.4,63.4,29.93,NNE,19,0.0,0.0,100,0.00,CLR,,0.00,WeatherDisplay:10.37,2013-08-29 09:15:00,
2013-08-29 04:20:00,63.9,63.9,29.93,NNE,19,0.0,0.0,100,0.00,CLR,,0.00,WeatherDisplay:10.37,2013-08-29 09:20:00,
2013-08-29 04:25:00,64.0,64.0,29.93,NNE,19,0.0,0.0,100,0.00,CLR,,0.00,WeatherDisplay:10.37,2013-08-29 09:25:00,
2013-08-29 04:30:00,63.9,63.9,29.93,NNE,19,0.0,0.0,100,0.00,CLR,,0.00,WeatherDisplay:10.37,2013-08-29 09:30:00,
2013-08-29 04:35:00,63.8,63.8,29.93,NNE,19,0.0,0.0,100,0.00,CLR,,0.00,WeatherDisplay:10.37,2013-08-29 09:35:00,
2013-08-29 04:40:00,63.7,63.7,29.93,NNE,19,0.0,0.0,100,0.00,CLR,,0.00,WeatherDisplay:10.37,2013-08-29 09:40:00,
2013-08-29 04:45:00,63.5,63.5,29.93,NNE,19,0.0,0.0,100,0.00,CLR,,0.00,WeatherDisplay:10.37,2013-08-29 09:45:00,
2013-08-29 04:50:00,63.7,63.7,29.93,NNE,19,0.0,0.0,100,0.00,CLR,,0.00,WeatherDisplay:10.37,2013-08-29 09:50:00,
2013-08-29 04:55:00,63.5,63.5,29.93,NNE,19,0.0,0.0,100,0.00,CLR,,0.00,WeatherDisplay:10.37,2013-08-29 09:55:00,
2013-08-29 05:00:00,63.4,63.4,29.93,NNE,19,0.0,0.0,100,0.00,CLR,,0.00,WeatherDisplay:10.37,2013-08-29 10:00:00,
2013-08-29 05:05:00,63.2,63.2,29.93,NNE,19,0.0,0.0,100,0.00,CLR,,0.00,WeatherDisplay:10.37,2013-08-29 10:05:00,
2013-08-29 05:10:00,63.1,63.1,29.93,NNE,19,0.0,0.0,100,0.00,CLR,,0.00,WeatherDisplay:10.37,2013-08-29 10:10:00,
2013-08-29 05:15:00,62.7,62.7,29.93,NNE,19,0.0,0.0,100,0.00,CLR,,0.00,WeatherDisplay:10.37,2013-08-29 10:15:00,
2013-08-29 05:20:00,62.7,62.7,29.93,NNE,19,0.0,0.0,100,0.00,CLR,,0.00,WeatherDisplay:10.37,2013-08-29 10:20:00,
2013-08-29 05:25:00,62.7,62.7,29.93,NNE,19,0.0,0.0,100,0.00,CLR,,0.00,WeatherDisplay:10.37,2013-08-29 10:25:00,
2013-08-29 05:30:00,62.9,62.9,29.93,NNE,19,0.0,0.0,100,0.00,CLR,,0.00,WeatherDisplay:10.37,2013-08-29 10:30:00,
2013-08-29 05:35:00,62.7,62.7,29.93,NNE,19,0.0,0.0,100,0.00,CLR,,0.00,WeatherDisplay:10.37,2013-08-29 10:35:00,
2013-08-29 05:40:00,62.4,62.4,29.93,NNE,19,0.0,0.0,100,0.00,CLR,,0.00,WeatherDisplay:10.37,2013-08-29 10:40:00,
2013-08-29 05:45:00,62.1,62.1,29.93,NNE,19,0.0,0.0,100,0.00,CLR,,0.00,WeatherDisplay:10.37,2013-08-29 10:45:00,
2013-08-29 05:50:00,62.1,62.1,29.94,NNE,19,0.0,0.0,100,0.00,CLR,,0.00,WeatherDisplay:10.37,2013-08-29 10:50:00,
2013-08-29 05:55:00,62.1,62.1,29.94,NNE,19,0.0,0.0,100,0.00,CLR,,0.00,WeatherDisplay:10.37,2013-08-29 10:55:00,
2013-08-29 06:00:00,62.1,62.1,29.94,NNE,19,0.0,0.0,100,0.00,CLR,,0.00,WeatherDisplay:10.37,2013-08-29 11:00:00,
2013-08-29 06:05:00,62.3,62.3,29.94,NNE,19,0.0,0.0,100,0.00,CLR,,0.00,WeatherDisplay:10.37,2013-08-29 11:05:00,
2013-08-29 06:10:00,62.4,62.4,29.94,NNE,19,0.0,0.0,100,0.00,CLR,,0.00,WeatherDisplay:10.37,2013-08-29 11:10:00,
2013-08-29 06:15:00,62.6,62.6,29.94,NNE,19,0.0,0.0,100,0.00,CLR,,0.00,WeatherDisplay:10.37,2013-08-29 11:15:00,
2013-08-29 06:20:00,62.6,62.6,29.95,NNE,19,0.0,0.0,100,0.00,CLR,,0.00,WeatherDisplay:10.37,2013-08-29 11:20:00,
2013-08-29 06:25:00,62.4,62.4,29.95,NNE,19,0.0,0.0,100,0.00,CLR,,0.00,WeatherDisplay:10.37,2013-08-29 11:25:00,
2013-08-29 06:30:00,62.1,62.1,29.95,NNE,19,0.0,0.0,100,0.00,CLR,,0.00,WeatherDisplay:10.37,2013-08-29 11:30:00,
2013-08-29 06:35:00,62.3,62.3,29.94,NNE,19,0.0,0.0,100,0.00,CLR,,0.00,WeatherDisplay:10.37,2013-08-29 11:35:00,
2013-08-29 06:40:00,62.6,62.6,29.94,NNE,19,0.0,0.0,100,0.00,CLR,,0.00,WeatherDisplay:10.37,2013-08-29 11:40:00,
2013-08-29 06:45:00,62.7,62.7,29.94,NNE,19,0.0,0.0,100,0.00,CLR,,0.00,WeatherDisplay:10.37,2013-08-29 11:45:00,
2013-08-29 06:50:00,62.7,62.7,29.95,NNE,19,0.0,0.0,100,0.00,CLR,,0.00,WeatherDisplay:10.37,2013-08-29 11:50:00,
2013-08-29 06:55:00,62.9,62.9,29.95,NNE,19,0.0,0.0,100,0.00,CLR,,0.00,WeatherDisplay:10.37,2013-08-29 11:55:00,
2013-08-29 07:00:00,63.2,63.2,29.95,NNE,19,0.0,0.0,100,0.00,CLR,,0.00,WeatherDisplay:10.37,2013-08-29 12:00:00,
2013-08-29 07:05:00,63.4,63.4,29.95,NNE,19,0.0,0.0,100,0.00,CLR,,0.00,WeatherDisplay:10.37,2013-08-29 12:05:00,
2013-08-29 07:10:00,63.6,63.6,29.95,NNE,19,0.0,0.0,100,0.00,CLR,,0.00,WeatherDisplay:10.37,2013-08-29 12:10:00,
2013-08-29 07:15:00,63.5,63.5,29.95,NNE,19,0.0,0.0,100,0.00,CLR,,0.00,WeatherDisplay:10.37,2013-08-29 12:15:00,
2013-08-29 07:20:00,63.7,63.7,29.95,NNE,19,0.0,0.0,100,0.00,CLR,,0.00,WeatherDisplay:10.37,2013-08-29 12:20:00,
2013-08-29 07:25:00,63.7,63.7,29.95,NNE,19,0.0,0.0,100,0.00,CLR,,0.00,WeatherDisplay:10.37,2013-08-29 12:25:00,
2013-08-29 07:30:00,63.9,63.9,29.95,NNE,19,0.0,0.0,100,0.00,CLR,,0.00,WeatherDisplay:10.37,2013-08-29 12:30:00,
2013-08-29 07:35:00,64.0,64.0,29.96,NNE,19,0.0,0.0,100,0.00,CLR,,0.00,WeatherDisplay:10.37,2013-08-29 12:35:00,
2013-08-29 07:40:00,64.3,64.3,29.96,NNE,19,0.0,0.0,100,0.00,CLR,,0.00,WeatherDisplay:10.37,2013-08-29 12:40:00,
2013-08-29 07:45:00,64.8,64.8,29.96,NNE,19,0.0,0.0,100,0.00,CLR,,0.00,WeatherDisplay:10.37,2013-08-29 12:45:00,
2013-08-29 07:50:00,65.3,65.3,29.95,NNE,19,0.0,0.0,100,0.00,CLR,,0.00,WeatherDisplay:10.37,2013-08-29 12:50:00,
2013-08-29 07:55:00,65.8,65.8,29.95,NNE,19,0.0,0.0,100,0.00,CLR,,0.00,WeatherDisplay:10.37,2013-08-29 12:55:00,
2013-08-29 08:00:00,66.4,66.4,29.95,NNE,19,0.0,0.0,100,0.00,CLR,,0.00,WeatherDisplay:10.37,2013-08-29 13:00:00,
2013-08-29 08:05:00,67.0,67.0,29.96,NNE,19,0.0,0.0,100,0.00,CLR,,0.00,WeatherDisplay:10.37,2013-08-29 13:05:00,
2013-08-29 08:10:00,67.4,67.4,29.96,NNE,21,0.0,0.0,100,0.00,CLR,,0.00,WeatherDisplay:10.37,2013-08-29 13:10:00,
2013-08-29 08:15:00,67.8,67.8,29.96,NNE,23,0.0,0.0,100,0.00,CLR,,0.00,WeatherDisplay:10.37,2013-08-29 13:15:00,
2013-08-29 08:20:00,68.3,68.3,29.95,NNE,24,0.0,0.0,100,0.00,CLR,,0.00,WeatherDisplay:10.37,2013-08-29 13:20:00,
2013-08-29 08:25:00,68.8,68.8,29.95,NNE,24,0.0,0.0,100,0.00,CLR,,0.00,WeatherDisplay:10.37,2013-08-29 13:25:00,
2013-08-29 08:30:00,69.1,69.1,29.95,NNE,25,0.0,0.0,100,0.00,CLR,,0.00,WeatherDisplay:10.37,2013-08-29 13:30:00,
2013-08-29 08:35:00,69.4,69.4,29.96,NNE,26,0.0,0.0,100,0.00,CLR,,0.00,WeatherDisplay:10.37,2013-08-29 13:35:00,
2013-08-29 08:40:00,69.8,69.8,29.96,NNE,27,0.0,0.0,100,0.00,CLR,,0.00,WeatherDisplay:10.37,2013-08-29 13:40:00,
2013-08-29 08:45:00,70.1,70.1,29.96,NNE,33,0.0,0.0,100,0.00,CLR,,0.00,WeatherDisplay:10.37,2013-08-29 13:45:00,
2013-08-29 08:50:00,70.4,69.8,29.97,NE,42,0.0,0.0,98,0.00,CLR,,0.00,WeatherDisplay:10.37,2013-08-29 13:50:00,
2013-08-29 08:55:00,70.8,69.6,29.97,NE,45,0.0,0.0,96,0.00,CLR,,0.00,WeatherDisplay:10.37,2013-08-29 13:55:00,
2013-08-29 09:00:00,71.1,69.3,29.97,NE,45,0.0,0.0,94,0.00,CLR,,0.00,WeatherDisplay:10.37,2013-08-29 14:00:00,
2013-08-29 09:05:00,71.6,69.2,29.97,NE,45,0.0,0.0,92,0.00,CLR,,0.00,WeatherDisplay:10.37,2013-08-29 14:05:00,
2013-08-29 09:10:00,72.1,69.0,29.97,NE,45,0.0,0.0,90,0.00,CLR,,0.00,WeatherDisplay:10.37,2013-08-29 14:10:00,
2013-08-29 09:15:00,72.7,69.3,29.97,NE,45,0.0,0.0,89,0.00,CLR,,0.00,WeatherDisplay:10.37,2013-08-29 14:15:00,
2013-08-29 09:20:00,73.2,69.4,29.97,NE,46,0.0,0.0,88,0.00,CLR,,0.00,WeatherDisplay:10.37,2013-08-29 14:20:00,
2013-08-29 09:25:00,73.4,68.9,29.97,NE,47,0.0,0.0,86,0.00,CLR,,0.00,WeatherDisplay:10.37,2013-08-29 14:25:00,
2013-08-29 09:30:00,73.8,69.0,29.97,NE,47,0.0,0.0,85,0.00,CLR,,0.00,WeatherDisplay:10.37,2013-08-29 14:30:00,
2013-08-29 09:35:00,74.2,69.1,29.97,NE,47,0.0,0.0,84,0.00,CLR,,0.00,WeatherDisplay:10.37,2013-08-29 14:35:00,
2013-08-29 09:40:00,74.6,69.5,29.97,NE,47,0.0,0.0,84,0.00,CLR,,0.00,WeatherDisplay:10.37,2013-08-29 14:40:00,
2013-08-29 09:45:00,75.1,69.9,29.97,NE,47,0.0,0.0,84,0.00,CLR,,0.00,WeatherDisplay:10.37,2013-08-29 14:45:00,
2013-08-29 09:50:00,75.4,69.5,29.97,NE,47,0.0,0.0,82,0.00,CLR,,0.00,WeatherDisplay:10.37,2013-08-29 14:50:00,
2013-08-29 09:55:00,75.6,69.4,29.97,NE,47,0.0,0.0,81,0.00,CLR,,0.00,WeatherDisplay:10.37,2013-08-29 14:55:00,
2013-08-29 10:00:00,75.8,69.6,29.97,NE,47,0.0,0.0,81,0.00,CLR,,0.00,WeatherDisplay:10.37,2013-08-29 15:00:00,
2013-08-29 10:05:00,76.1,69.8,29.97,NE,47,0.0,0.0,81,0.00,CLR,,0.00,WeatherDisplay:10.37,2013-08-29 15:05:00,
2013-08-29 10:10:00,76.5,69.5,29.97,NE,46,0.0,0.0,79,0.00,CLR,,0.00,WeatherDisplay:10.37,2013-08-29 15:10:00,
2013-08-29 10:15:00,76.7,69.3,29.97,NE,46,0.0,0.0,78,0.00,CLR,,0.00,WeatherDisplay:10.37,2013-08-29 15:15:00,
2013-08-29 10:20:00,77.0,70.0,29.96,NE,46,0.0,0.0,79,0.00,CLR,,0.00,WeatherDisplay:10.37,2013-08-29 15:20:00,
2013-08-29 10:25:00,77.2,70.2,29.96,NE,46,0.0,0.0,79,0.00,CLR,,0.00,WeatherDisplay:10.37,2013-08-29 15:25:00,
2013-08-29 10:30:00,77.4,69.6,29.96,NE,46,0.0,0.0,77,0.00,CLR,,0.00,WeatherDisplay:10.37,2013-08-29 15:30:00,
2013-08-29 10:35:00,77.4,70.4,29.96,NE,46,0.0,0.0,79,0.00,CLR,,0.00,WeatherDisplay:10.37,2013-08-29 15:35:00,
2013-08-29 10:40:00,77.7,70.3,29.96,NE,46,0.0,0.0,78,0.00,CLR,,0.00,WeatherDisplay:10.37,2013-08-29 15:40:00,
2013-08-29 10:45:00,78.1,71.1,29.96,NE,46,0.0,0.0,79,0.00,CLR,,0.00,WeatherDisplay:10.37,2013-08-29 15:45:00,
2013-08-29 10:50:00,78.6,71.5,29.96,NE,46,0.0,0.0,79,0.00,CLR,,0.00,WeatherDisplay:10.37,2013-08-29 15:50:00,
2013-08-29 10:55:00,79.2,70.9,29.96,NE,46,0.0,0.0,76,0.00,CLR,,0.00,WeatherDisplay:10.37,2013-08-29 15:55:00,
2013-08-29 11:00:00,79.7,71.4,29.96,NE,46,0.0,0.0,76,0.00,CLR,,0.00,WeatherDisplay:10.37,2013-08-29 16:00:00,
2013-08-29 11:05:00,80.2,70.8,29.96,NE,48,0.0,1.0,73,0.00,CLR,,0.00,WeatherDisplay:10.37,2013-08-29 16:05:00,
2013-08-29 11:10:00,80.8,70.9,29.96,NE,55,0.0,0.0,72,0.00,CLR,,0.00,WeatherDisplay:10.37,2013-08-29 16:10:00,
2013-08-29 11:15:00,81.2,71.3,29.96,ENE,57,0.0,0.0,72,0.00,CLR,,0.00,WeatherDisplay:10.37,2013-08-29 16:15:00,
2013-08-29 11:20:00,81.6,70.4,29.97,NNW,332,0.0,0.0,69,0.00,CLR,,0.00,WeatherDisplay:10.37,2013-08-29 16:20:00,
2013-08-29 11:25:00,81.7,71.3,29.97,WSW,247,0.0,0.0,71,0.00,CLR,,0.00,WeatherDisplay:10.37,2013-08-29 16:25:00,
2013-08-29 11:30:00,82.0,71.2,29.97,WSW,247,0.0,0.0,70,0.00,CLR,,0.00,WeatherDisplay:10.37,2013-08-29 16:30:00,
2013-08-29 11:35:00,82.2,70.6,29.97,WSW,246,0.0,0.0,68,0.00,CLR,,0.00,WeatherDisplay:10.37,2013-08-29 16:35:00,
2013-08-29 11:40:00,82.2,71.1,29.97,WSW,244,0.0,0.0,69,0.00,CLR,,0.00,WeatherDisplay:10.37,2013-08-29 16:40:00,
2013-08-29 11:45:00,82.4,70.8,29.97,WSW,240,0.0,0.0,68,0.00,CLR,,0.00,WeatherDisplay:10.37,2013-08-29 16:45:00,
2013-08-29 11:50:00,82.8,71.6,29.95,WSW,237,0.0,0.0,69,0.00,CLR,,0.00,WeatherDisplay:10.37,2013-08-29 16:50:00,
2013-08-29 11:55:00,83.2,71.1,29.95,SW,235,0.0,4.0,67,0.00,CLR,,0.00,WeatherDisplay:10.37,2013-08-29 16:55:00,
2013-08-29 12:00:00,83.7,71.6,29.95,SW,226,1.0,4.0,67,0.00,CLR,,0.00,WeatherDisplay:10.37,2013-08-29 17:00:00,
2013-08-29 12:05:00,84.1,71.1,29.95,SW,219,0.0,2.0,65,0.00,CLR,,0.00,WeatherDisplay:10.37,2013-08-29 17:05:00,
2013-08-29 12:10:00,84.3,70.8,29.95,SSW,204,2.0,6.0,64,0.00,CLR,,0.00,WeatherDisplay:10.37,2013-08-29 17:10:00,
2013-08-29 12:15:00,84.5,71.0,29.95,SW,220,1.0,6.0,64,0.00,CLR,,0.00,WeatherDisplay:10.37,2013-08-29 17:15:00,
2013-08-29 12:20:00,84.7,70.2,29.95,SW,219,3.0,8.0,62,0.00,CLR,,0.00,WeatherDisplay:10.37,2013-08-29 17:20:00,
2013-08-29 12:25:00,84.7,69.8,29.95,SSW,209,2.0,8.0,61,0.00,CLR,,0.00,WeatherDisplay:10.37,2013-08-29 17:25:00,
2013-08-29 12:30:00,84.7,69.3,29.95,SSW,208,3.0,6.0,60,0.00,CLR,,0.00,WeatherDisplay:10.37,2013-08-29 17:30:00,
2013-08-29 12:35:00,84.9,69.5,29.95,SSW,206,2.0,5.0,60,0.00,CLR,,0.00,WeatherDisplay:10.37,2013-08-29 17:35:00,
2013-08-29 12:40:00,85.1,69.7,29.95,SW,216,0.0,4.0,60,0.00,CLR,,0.00,WeatherDisplay:10.37,2013-08-29 17:40:00,
2013-08-29 12:45:00,85.5,70.0,29.95,WSW,239,1.0,5.0,60,0.00,CLR,,0.00,WeatherDisplay:10.37,2013-08-29 17:45:00,
2013-08-29 12:50:00,85.7,69.7,29.94,SW,233,1.0,5.0,59,0.00,CLR,,0.00,WeatherDisplay:10.37,2013-08-29 17:50:00,
2013-08-29 12:55:00,85.9,71.4,29.94,WSW,243,0.0,5.0,62,0.00,CLR,,0.00,WeatherDisplay:10.37,2013-08-29 17:55:00,
2013-08-29 13:00:00,85.9,70.9,29.94,SW,236,0.0,3.0,61,0.00,CLR,,0.00,WeatherDisplay:10.37,2013-08-29 18:00:00,
2013-08-29 13:05:00,86.1,72.0,29.94,SW,225,0.0,2.0,63,0.00,CLR,,0.00,WeatherDisplay:10.37,2013-08-29 18:05:00,
2013-08-29 13:10:00,86.1,71.1,29.94,SW,218,1.0,4.0,61,0.00,CLR,,0.00,WeatherDisplay:10.37,2013-08-29 18:10:00,
2013-08-29 13:15:00,86.1,70.6,29.94,SW,214,0.0,3.0,60,0.00,CLR,,0.00,WeatherDisplay:10.37,2013-08-29 18:15:00,
2013-08-29 13:20:00,86.1,70.6,29.93,SW,216,0.0,3.0,60,0.00,CLR,,0.00,WeatherDisplay:10.37,2013-08-29 18:20:00,
2013-08-29 13:25:00,86.1,70.1,29.93,SSW,209,1.0,6.0,59,0.00,CLR,,0.00,WeatherDisplay:10.37,2013-08-29 18:25:00,
2013-08-29 13:30:00,86.1,69.6,29.93,SSW,203,1.0,5.0,58,0.00,CLR,,0.00,WeatherDisplay:10.37,2013-08-29 18:30:00,
2013-08-29 13:35:00,86.1,69.6,29.93,SSW,209,0.0,6.0,58,0.00,CLR,,0.00,WeatherDisplay:10.37,2013-08-29 18:35:00,
2013-08-29 13:40:00,86.3,70.3,29.93,SSW,212,0.0,4.0,59,0.00,CLR,,0.00,WeatherDisplay:10.37,2013-08-29 18:40:00,
2013-08-29 13:45:00,86.3,70.3,29.93,SW,217,0.0,4.0,59,0.00,CLR,,0.00,WeatherDisplay:10.37,2013-08-29 18:45:00,
2013-08-29 13:50:00,86.3,70.3,29.92,SW,215,0.0,3.0,59,0.00,CLR,,0.00,WeatherDisplay:10.37,2013-08-29 18:50:00,
2013-08-29 13:55:00,86.3,70.3,29.92,SSW,202,0.0,5.0,59,0.00,CLR,,0.00,WeatherDisplay:10.37,2013-08-29 18:55:00,
2013-08-29 14:00:00,86.3,69.8,29.92,SSW,200,0.0,4.0,58,0.00,CLR,,0.00,WeatherDisplay:10.37,2013-08-29 19:00:00,
2013-08-29 14:05:00,86.3,69.3,29.92,South,185,0.0,2.0,57,0.00,CLR,,0.00,WeatherDisplay:10.37,2013-08-29 19:05:00,
2013-08-29 14:10:00,86.3,69.8,29.92,SSW,210,0.0,4.0,58,0.00,CLR,,0.00,WeatherDisplay:10.37,2013-08-29 19:10:00,
2013-08-29 14:15:00,86.3,69.8,29.92,SW,227,1.0,4.0,58,0.00,CLR,,0.00,WeatherDisplay:10.37,2013-08-29 19:15:00,
2013-08-29 14:20:00,86.5,70.5,29.91,SW,229,0.0,5.0,59,0.00,CLR,,0.00,WeatherDisplay:10.37,2013-08-29 19:20:00,
2013-08-29 14:25:00,86.3,69.8,29.91,SW,227,0.0,5.0,58,0.00,CLR,,0.00,WeatherDisplay:10.37,2013-08-29 19:25:00,
2013-08-29 14:30:00,86.3,69.3,29.91,SW,219,2.0,5.0,57,0.00,CLR,,0.00,WeatherDisplay:10.37,2013-08-29 19:30:00,
2013-08-29 14:35:00,86.3,70.8,29.90,SSW,211,0.0,1.0,60,0.00,CLR,,0.00,WeatherDisplay:10.37,2013-08-29 19:35:00,
2013-08-29 14:40:00,86.3,70.3,29.90,South,173,0.0,3.0,59,0.00,CLR,,0.00,WeatherDisplay:10.37,2013-08-29 19:40:00,
2013-08-29 14:45:00,86.3,70.3,29.90,SSW,205,1.0,7.0,59,0.00,CLR,,0.00,WeatherDisplay:10.37,2013-08-29 19:45:00,
2013-08-29 14:50:00,86.5,70.0,29.91,SSW,207,0.0,4.0,58,0.00,CLR,,0.00,WeatherDisplay:10.37,2013-08-29 19:50:00,
2013-08-29 14:55:00,86.5,70.5,29.91,SSW,198,0.0,1.0,59,0.00,CLR,,0.00,WeatherDisplay:10.37,2013-08-29 19:55:00,
2013-08-29 15:00:00,86.5,70.0,29.91,SW,219,1.0,4.0,58,0.00,CLR,,0.00,WeatherDisplay:10.37,2013-08-29 20:00:00,
2013-08-29 15:05:00,86.5,70.5,29.91,SW,224,0.0,6.0,59,0.00,CLR,,0.00,WeatherDisplay:10.37,2013-08-29 20:05:00,
2013-08-29 15:10:00,86.5,70.5,29.91,SW,216,1.0,5.0,59,0.00,CLR,,0.00,WeatherDisplay:10.37,2013-08-29 20:10:00,
2013-08-29 15:15:00,86.4,69.9,29.91,SW,220,0.0,4.0,58,0.00,CLR,,0.00,WeatherDisplay:10.37,2013-08-29 20:15:00,
2013-08-29 15:20:00,86.3,69.3,29.90,WSW,237,0.0,5.0,57,0.00,CLR,,0.00,WeatherDisplay:10.37,2013-08-29 20:20:00,
2013-08-29 15:25:00,86.3,70.3,29.90,SSW,202,0.0,5.0,59,0.00,CLR,,0.00,WeatherDisplay:10.37,2013-08-29 20:25:00,
2013-08-29 15:30:00,86.1,70.1,29.90,SSE,167,0.0,1.0,59,0.00,CLR,,0.00,WeatherDisplay:10.37,2013-08-29 20:30:00,
2013-08-29 15:35:00,86.1,70.1,29.90,SSE,150,0.0,1.0,59,0.00,CLR,,0.00,WeatherDisplay:10.37,2013-08-29 20:35:00,
2013-08-29 15:40:00,85.9,70.4,29.90,SSE,150,0.0,1.0,60,0.00,CLR,,0.00,WeatherDisplay:10.37,2013-08-29 20:40:00,
2013-08-29 15:45:00,85.9,70.4,29.90,SSE,151,0.0,3.0,60,0.00,CLR,,0.00,WeatherDisplay:10.37,2013-08-29 20:45:00,
2013-08-29 15:50:00,85.7,70.7,29.89,SSE,151,0.0,1.0,61,0.00,CLR,,0.00,WeatherDisplay:10.37,2013-08-29 20:50:00,
2013-08-29 15:55:00,85.5,70.0,29.89,SSE,153,0.0,2.0,60,0.00,CLR,,0.00,WeatherDisplay:10.37,2013-08-29 20:55:00,
2013-08-29 16:00:00,85.3,69.8,29.89,SSE,168,0.0,4.0,60,0.00,CLR,,0.00,WeatherDisplay:10.37,2013-08-29 21:00:00,
2013-08-29 16:05:00,85.3,71.3,29.89,SW,218,0.0,4.0,63,0.00,CLR,,0.00,WeatherDisplay:10.37,2013-08-29 21:05:00,
2013-08-29 16:10:00,85.3,70.8,29.89,West,263,0.0,1.0,62,0.00,CLR,,0.00,WeatherDisplay:10.37,2013-08-29 21:10:00,
2013-08-29 16:15:00,85.3,70.8,29.89,West,262,0.0,4.0,62,0.00,CLR,,0.00,WeatherDisplay:10.37,2013-08-29 21:15:00,
2013-08-29 16:20:00,85.1,71.1,29.89,WSW,247,0.0,4.0,63,0.00,CLR,,0.00,WeatherDisplay:10.37,2013-08-29 21:20:00,
2013-08-29 16:25:00,85.1,71.1,29.89,SW,233,0.0,1.0,63,0.00,CLR,,0.00,WeatherDisplay:10.37,2013-08-29 21:25:00,
2013-08-29 16:30:00,84.9,70.4,29.89,SW,227,0.0,5.0,62,0.00,CLR,,0.00,WeatherDisplay:10.37,2013-08-29 21:30:00,
2013-08-29 16:35:00,84.9,70.9,29.88,SSW,213,1.0,4.0,63,0.00,CLR,,0.00,WeatherDisplay:10.37,2013-08-29 21:35:00,
2013-08-29 16:40:00,84.9,70.9,29.88,SSW,203,0.0,5.0,63,0.00,CLR,,0.00,WeatherDisplay:10.37,2013-08-29 21:40:00,
2013-08-29 16:45:00,84.7,70.7,29.88,SSW,209,1.0,3.0,63,0.00,CLR,,0.00,WeatherDisplay:10.37,2013-08-29 21:45:00,
2013-08-29 16:50:00,84.7,71.2,29.88,SW,232,3.0,5.0,64,0.00,CLR,,0.00,WeatherDisplay:10.37,2013-08-29 21:50:00,
2013-08-29 16:55:00,84.5,71.4,29.88,SW,232,0.0,4.0,65,0.00,CLR,,0.00,WeatherDisplay:10.37,2013-08-29 21:55:00,
2013-08-29 17:00:00,84.5,71.4,29.88,SW,233,0.0,6.0,65,0.00,CLR,,0.00,WeatherDisplay:10.37,2013-08-29 22:00:00,
2013-08-29 17:05:00,84.5,71.4,29.88,West,264,0.0,3.0,65,0.00,CLR,,0.00,WeatherDisplay:10.37,2013-08-29 22:05:00,
2013-08-29 17:10:00,84.3,71.2,29.88,SW,221,1.0,5.0,65,0.00,CLR,,0.00,WeatherDisplay:10.37,2013-08-29 22:10:00,
2013-08-29 17:15:00,84.1,71.5,29.88,SSW,198,1.0,3.0,66,0.00,CLR,,0.00,WeatherDisplay:10.37,2013-08-29 22:15:00,
2013-08-29 17:20:00,84.1,71.5,29.87,SSW,204,1.0,5.0,66,0.00,CLR,,0.00,WeatherDisplay:10.37,2013-08-29 22:20:00,
2013-08-29 17:25:00,84.0,71.4,29.87,SW,218,0.0,3.0,66,0.00,CLR,,0.00,WeatherDisplay:10.37,2013-08-29 22:25:00,
2013-08-29 17:30:00,83.8,70.8,29.87,SW,224,1.0,3.0,65,0.00,CLR,,0.00,WeatherDisplay:10.37,2013-08-29 22:30:00,
2013-08-29 17:35:00,83.8,70.3,29.87,SW,235,1.0,5.0,64,0.00,CLR,,0.00,WeatherDisplay:10.37,2013-08-29 22:35:00,
2013-08-29 17:40:00,83.7,70.7,29.87,WSW,258,1.0,3.0,65,0.00,CLR,,0.00,WeatherDisplay:10.37,2013-08-29 22:40:00,
2013-08-29 17:45:00,83.6,71.0,29.87,West,280,0.0,2.0,66,0.00,CLR,,0.00,WeatherDisplay:10.37,2013-08-29 22:45:00,
2013-08-29 17:50:00,83.4,70.4,29.86,SW,222,1.0,4.0,65,0.00,CLR,,0.00,WeatherDisplay:10.37,2013-08-29 22:50:00,
2013-08-29 17:55:00,83.2,70.7,29.86,SSW,202,0.0,1.0,66,0.00,CLR,,0.00,WeatherDisplay:10.37,2013-08-29 22:55:00,
2013-08-29 18:00:00,83.1,70.5,29.86,SSW,202,0.0,4.0,66,0.00,CLR,,0.00,WeatherDisplay:10.37,2013-08-29 23:00:00,
2013-08-29 18:05:00,82.8,70.7,29.86,South,180,0.0,5.0,67,0.00,CLR,,0.00,WeatherDisplay:10.37,2013-08-29 23:05:00,
2013-08-29 18:10:00,82.6,71.0,29.86,SSE,168,0.0,2.0,68,0.00,CLR,,0.00,WeatherDisplay:10.37,2013-08-29 23:10:00,
2013-08-29 18:15:00,82.4,70.8,29.86,SSE,167,1.0,4.0,68,0.00,CLR,,0.00,WeatherDisplay:10.37,2013-08-29 23:15:00,
2013-08-29 18:20:00,82.4,70.8,29.86,SSE,162,1.0,3.0,68,0.00,CLR,,0.00,WeatherDisplay:10.37,2013-08-29 23:20:00,
2013-08-29 18:30:00,82.0,71.2,29.86,South,184,0.0,3.0,70,0.00,CLR,,0.00,WeatherDisplay:10.37,2013-08-29 23:30:00,
2013-08-29 18:35:00,81.8,71.0,29.86,South,185,1.0,4.0,70,0.00,CLR,,0.00,WeatherDisplay:10.37,2013-08-29 23:35:00,
2013-08-29 18:40:00,81.4,71.1,29.86,South,188,0.0,1.0,71,0.00,CLR,,0.00,WeatherDisplay:10.37,2013-08-29 23:40:00,
2013-08-29 18:45:00,81.1,71.2,29.86,South,185,0.0,1.0,72,0.00,CLR,,0.00,WeatherDisplay:10.37,2013-08-29 23:45:00,
2013-08-29 18:50:00,80.9,71.0,29.86,South,177,0.0,2.0,72,0.00,CLR,,0.00,WeatherDisplay:10.37,2013-08-29 23:50:00,
2013-08-29 18:55:00,80.5,71.0,29.86,South,176,0.0,0.0,73,0.00,CLR,,0.00,WeatherDisplay:10.37,2013-08-29 23:55:00,
2013-08-29 19:00:00,80.3,71.3,29.86,South,176,0.0,0.0,74,0.00,CLR,,0.00,WeatherDisplay:10.37,2013-08-30 00:00:00,
2013-08-29 19:05:00,80.0,70.6,29.87,South,176,0.0,0.0,73,0.00,CLR,,0.00,WeatherDisplay:10.37,2013-08-30 00:05:00,
2013-08-29 19:10:00,79.9,70.8,29.87,South,176,0.0,0.0,74,0.00,CLR,,0.00,WeatherDisplay:10.37,2013-08-30 00:10:00,
2013-08-29 19:15:00,79.8,71.1,29.87,South,176,0.0,0.0,75,0.00,CLR,,0.00,WeatherDisplay:10.37,2013-08-30 00:15:00,
2013-08-29 19:20:00,79.5,70.9,29.86,South,176,0.0,0.0,75,0.00,CLR,,0.00,WeatherDisplay:10.37,2013-08-30 00:20:00,
2013-08-29 19:25:00,79.2,70.6,29.86,South,176,0.0,0.0,75,0.00,CLR,,0.00,WeatherDisplay:10.37,2013-08-30 00:25:00,
2013-08-29 19:30:00,79.0,70.8,29.86,South,176,0.0,0.0,76,0.00,CLR,,0.00,WeatherDisplay:10.37,2013-08-30 00:30:00,
2013-08-29 19:35:00,78.6,70.4,29.85,South,176,0.0,0.0,76,0.00,CLR,,0.00,WeatherDisplay:10.37,2013-08-30 00:35:00,
2013-08-29 19:40:00,78.3,70.5,29.85,South,176,0.0,0.0,77,0.00,CLR,,0.00,WeatherDisplay:10.37,2013-08-30 00:40:00,
2013-08-29 19:45:00,77.9,70.5,29.85,South,176,0.0,0.0,78,0.00,CLR,,0.00,WeatherDisplay:10.37,2013-08-30 00:45:00,
2013-08-29 19:50:00,77.6,70.2,29.85,South,176,0.0,0.0,78,0.00,CLR,,0.00,WeatherDisplay:10.37,2013-08-30 00:50:00,
2013-08-29 19:55:00,77.2,70.2,29.85,South,176,0.0,0.0,79,0.00,CLR,,0.00,WeatherDisplay:10.37,2013-08-30 00:55:00,
2013-08-29 20:00:00,76.8,70.2,29.85,South,176,0.0,0.0,80,0.00,CLR,,0.00,WeatherDisplay:10.37,2013-08-30 01:00:00,
2013-08-29 20:05:00,76.5,69.9,29.85,South,176,0.0,0.0,80,0.00,CLR,,0.00,WeatherDisplay:10.37,2013-08-30 01:05:00,
2013-08-29 20:10:00,76.3,70.0,29.85,South,176,0.0,0.0,81,0.00,CLR,,0.00,WeatherDisplay:10.37,2013-08-30 01:10:00,
2013-08-29 20:15:00,76.0,70.1,29.85,South,176,0.0,0.0,82,0.00,CLR,,0.00,WeatherDisplay:10.37,2013-08-30 01:15:00,
2013-08-29 20:20:00,75.8,70.3,29.85,South,176,0.0,0.0,83,0.00,CLR,,0.00,WeatherDisplay:10.37,2013-08-30 01:20:00,
2013-08-29 20:25:00,75.6,70.1,29.85,South,176,0.0,0.0,83,0.00,CLR,,0.00,WeatherDisplay:10.37,2013-08-30 01:25:00,
2013-08-29 20:30:00,75.4,70.2,29.85,South,176,0.0,0.0,84,0.00,CLR,,0.00,WeatherDisplay:10.37,2013-08-30 01:30:00,
2013-08-29 20:35:00,75.3,70.1,29.85,South,176,0.0,0.0,84,0.00,CLR,,0.00,WeatherDisplay:10.37,2013-08-30 01:35:00,
2013-08-29 20:40:00,75.2,70.4,29.85,South,176,0.0,0.0,85,0.00,CLR,,0.00,WeatherDisplay:10.37,2013-08-30 01:40:00,
2013-08-29 20:45:00,75.1,70.3,29.85,South,176,0.0,0.0,85,0.00,CLR,,0.00,WeatherDisplay:10.37,2013-08-30 01:45:00,
2013-08-29 20:50:00,74.9,70.4,29.85,South,176,0.0,0.0,86,0.00,CLR,,0.00,WeatherDisplay:10.37,2013-08-30 01:50:00,
2013-08-29 20:55:00,74.7,70.2,29.85,South,176,0.0,0.0,86,0.00,CLR,,0.00,WeatherDisplay:10.37,2013-08-30 01:55:00,
2013-08-29 21:00:00,74.9,70.4,29.85,South,176,0.0,0.0,86,0.00,CLR,,0.00,WeatherDisplay:10.37,2013-08-30 02:00:00,
2013-08-29 21:05:00,74.9,70.1,29.86,South,176,0.0,0.0,85,0.00,CLR,,0.00,WeatherDisplay:10.37,2013-08-30 02:05:00,
2013-08-29 21:10:00,75.1,70.6,29.86,South,176,0.0,1.0,86,0.00,CLR,,0.00,WeatherDisplay:10.37,2013-08-30 02:10:00,
2013-08-29 21:15:00,75.1,70.3,29.86,South,175,0.0,1.0,85,0.00,CLR,,0.00,WeatherDisplay:10.37,2013-08-30 02:15:00,
2013-08-29 21:20:00,75.1,70.3,29.86,South,174,0.0,0.0,85,0.00,CLR,,0.00,WeatherDisplay:10.37,2013-08-30 02:20:00,
2013-08-29 21:25:00,75.3,70.5,29.86,SSE,164,0.0,4.0,85,0.00,CLR,,0.00,WeatherDisplay:10.37,2013-08-30 02:25:00,
2013-08-29 21:30:00,75.4,70.2,29.86,SSE,159,0.0,2.0,84,0.00,CLR,,0.00,WeatherDisplay:10.37,2013-08-30 02:30:00,
2013-08-29 21:35:00,75.4,70.2,29.86,South,183,0.0,4.0,84,0.00,CLR,,0.00,WeatherDisplay:10.37,2013-08-30 02:35:00,
2013-08-29 21:40:00,75.4,69.9,29.86,South,183,0.0,1.0,83,0.00,CLR,,0.00,WeatherDisplay:10.37,2013-08-30 02:40:00,
2013-08-29 21:45:00,75.4,69.9,29.86,South,187,0.0,2.0,83,0.00,CLR,,0.00,WeatherDisplay:10.37,2013-08-30 02:45:00,
2013-08-29 21:50:00,75.4,69.9,29.85,SW,235,0.0,1.0,83,0.00,CLR,,0.00,WeatherDisplay:10.37,2013-08-30 02:50:00,
2013-08-29 21:55:00,75.4,69.9,29.85,SW,235,0.0,1.0,83,0.00,CLR,,0.00,WeatherDisplay:10.37,2013-08-30 02:55:00,
2013-08-29 22:00:00,75.4,69.9,29.85,SW,235,0.0,0.0,83,0.00,CLR,,0.00,WeatherDisplay:10.37,2013-08-30 03:00:00,
2013-08-29 22:05:00,75.3,69.8,29.85,SW,235,0.0,0.0,83,0.00,CLR,,0.00,WeatherDisplay:10.37,2013-08-30 03:05:00,
2013-08-29 22:10:00,75.3,70.1,29.85,SW,235,0.0,0.0,84,0.00,CLR,,0.00,WeatherDisplay:10.37,2013-08-30 03:10:00,
2013-08-29 22:15:00,75.1,69.9,29.85,SW,235,0.0,0.0,84,0.00,CLR,,0.00,WeatherDisplay:10.37,2013-08-30 03:15:00,
2013-08-29 22:20:00,75.1,69.9,29.85,SW,235,0.0,1.0,84,0.00,CLR,,0.00,WeatherDisplay:10.37,2013-08-30 03:20:00,
2013-08-29 22:25:00,75.1,69.9,29.85,SW,234,0.0,2.0,84,0.00,CLR,,0.00,WeatherDisplay:10.37,2013-08-30 03:25:00,
2013-08-29 22:30:00,74.9,69.7,29.85,SW,234,1.0,3.0,84,0.00,CLR,,0.00,WeatherDisplay:10.37,2013-08-30 03:30:00,
2013-08-29 22:35:00,74.7,69.9,29.85,SW,231,0.0,5.0,85,0.00,CLR,,0.00,WeatherDisplay:10.37,2013-08-30 03:35:00,
2013-08-29 22:40:00,74.6,69.8,29.85,SW,224,0.0,3.0,85,0.00,CLR,,0.00,WeatherDisplay:10.37,2013-08-30 03:40:00,
2013-08-29 22:45:00,74.6,69.8,29.85,SW,225,0.0,3.0,85,0.00,CLR,,0.00,WeatherDisplay:10.37,2013-08-30 03:45:00,
2013-08-29 22:50:00,74.4,69.6,29.85,SW,225,0.0,2.0,85,0.00,CLR,,0.00,WeatherDisplay:10.37,2013-08-30 03:50:00,
2013-08-29 22:55:00,74.4,69.9,29.85,SW,225,0.0,2.0,86,0.00,CLR,,0.00,WeatherDisplay:10.37,2013-08-30 03:55:00,
2013-08-29 23:00:00,74.2,69.7,29.85,SW,225,0.0,2.0,86,0.00,CLR,,0.00,WeatherDisplay:10.37,2013-08-30 04:00:00,
2013-08-29 23:05:00,74.0,69.5,29.85,SW,232,0.0,5.0,86,0.00,CLR,,0.00,WeatherDisplay:10.37,2013-08-30 04:05:00,
2013-08-29 23:10:00,73.9,69.4,29.85,WSW,244,0.0,1.0,86,0.00,CLR,,0.00,WeatherDisplay:10.37,2013-08-30 04:10:00,
2013-08-29 23:15:00,73.7,69.6,29.85,WSW,252,0.0,3.0,87,0.00,CLR,,0.00,WeatherDisplay:10.37,2013-08-30 04:15:00,
2013-08-29 23:20:00,73.7,69.2,29.85,West,268,0.0,2.0,86,0.00,CLR,,0.00,WeatherDisplay:10.37,2013-08-30 04:20:00,
2013-08-29 23:25:00,73.7,69.2,29.85,West,274,0.0,0.0,86,0.00,CLR,,0.00,WeatherDisplay:10.37,2013-08-30 04:25:00,
2013-08-29 23:35:00,73.5,69.4,29.85,West,275,0.0,0.0,87,0.00,CLR,,0.00,WeatherDisplay:10.37,2013-08-30 04:35:00,
2013-08-29 23:40:00,73.5,69.4,29.85,West,274,0.0,0.0,87,0.00,CLR,,0.00,WeatherDisplay:10.37,2013-08-30 04:40:00,
2013-08-29 23:45:00,73.3,69.2,29.85,West,274,0.0,0.0,87,0.00,CLR,,0.00,WeatherDisplay:10.37,2013-08-30 04:45:00,
2013-08-29 23:50:00,73.2,69.1,29.85,WSW,254,0.0,3.0,87,0.00,CLR,,0.00,WeatherDisplay:10.37,2013-08-30 04:50:00,
2013-08-29 23:55:00,73.1,69.0,29.85,WSW,237,0.0,0.0,87,0.00,CLR,,0.00,WeatherDisplay:10.37,2013-08-30 04:55:00,